Time;durP1;ratioP1;P1;durP2;ratioP2;P2;SDS_P1;SDS_P2;PMS_P1;PMS_P2;Temp;Humidity;BMP_temperature;BMP_pressure;BME280_temperature;BME280_humidity;BME280_pressure;Samples;Min_cycle;Max_cycle;Signal;HPM_P1;HPM_P2
2022/07/16 00:02:25;;;;;;;2.35;1.70;;;;;;;19.05;79.35;101439.31;6123898;23;20017;-89
2022/07/16 00:04:50;;;;;;;2.30;2.00;;;;;;;19.12;77.61;101423.66;6124725;23;20006;-89
2022/07/16 00:07:15;;;;;;;2.03;1.63;;;;;;;19.23;76.37;101431.53;6124975;23;20014;-89
2022/07/16 00:09:41;;;;;;;3.42;2.05;;;;;;;19.12;75.52;101434.31;6124652;23;20002;-89
2022/07/16 00:12:06;;;;;;;3.08;2.08;;;;;;;19.21;74.84;101422.84;6124461;23;20010;-89
2022/07/16 00:14:32;;;;;;;3.97;1.88;;;;;;;19.19;74.68;101420.34;6124367;23;20325;-88
2022/07/16 00:16:57;;;;;;;3.00;2.22;;;;;;;19.10;73.53;101407.81;6124747;23;20012;-89
2022/07/16 00:19:23;;;;;;;3.35;1.80;;;;;;;19.34;71.90;101419.94;6124801;23;20002;-89
2022/07/16 00:21:53;;;;;;;7.25;2.30;;;;;;;19.31;71.23;101423.72;6124835;23;20513;-88
2022/07/16 00:24:18;;;;;;;3.35;2.10;;;;;;;19.27;71.49;101424.94;6124415;23;20344;-89
2022/07/16 00:26:45;;;;;;;4.97;2.10;;;;;;;19.25;70.18;101434.91;6147460;23;20013;-87
2022/07/16 00:29:11;;;;;;;2.72;1.88;;;;;;;19.20;70.30;101427.31;6123777;23;20089;-87
2022/07/16 00:31:37;;;;;;;3.72;2.28;;;;;;;19.33;69.22;101431.56;6124229;23;20013;-88
2022/07/16 00:34:06;;;;;;;4.95;2.00;;;;;;;19.30;69.13;101426.53;6122929;23;20456;-87
2022/07/16 00:36:31;;;;;;;2.45;1.85;;;;;;;19.30;68.29;101426.53;6125848;23;20006;-88
2022/07/16 00:38:56;;;;;;;3.47;2.30;;;;;;;19.22;68.14;101430.69;6126505;23;20057;-88
2022/07/16 00:41:22;;;;;;;2.50;2.10;;;;;;;19.22;68.37;101429.88;6126662;23;20375;-88
2022/07/16 00:43:52;;;;;;;2.67;2.15;;;;;;;18.97;67.76;101426.69;6126266;23;20310;-86
2022/07/16 00:46:18;;;;;;;4.55;2.38;;;;;;;19.27;66.28;101427.63;6126577;23;20006;-87
2022/07/16 00:48:44;;;;;;;4.53;1.90;;;;;;;19.20;67.37;101437.16;6126284;23;20299;-89
2022/07/16 00:51:10;;;;;;;2.45;2.03;;;;;;;19.07;66.98;101431.19;6126462;23;20037;-89
2022/07/16 00:53:36;;;;;;;3.00;2.30;;;;;;;19.24;66.15;101422.56;6126371;23;20484;-89
2022/07/16 00:56:02;;;;;;;3.10;1.85;;;;;;;19.15;66.20;101418.88;6126739;23;20002;-89
2022/07/16 00:58:28;;;;;;;2.95;2.00;;;;;;;19.08;65.98;101427.59;6126025;23;20002;-89
2022/07/16 01:00:53;;;;;;;2.90;2.40;;;;;;;19.18;65.63;101423.13;6125755;23;20016;-89
2022/07/16 01:03:19;;;;;;;3.75;2.20;;;;;;;19.23;64.78;101420.88;6149144;23;20075;-89
2022/07/16 01:05:45;;;;;;;3.53;1.95;;;;;;;19.30;63.70;101416.69;6126398;23;20385;-89
2022/07/16 01:08:11;;;;;;;2.38;1.90;;;;;;;19.19;64.34;101408.81;6126256;23;20426;-90
2022/07/16 01:10:38;;;;;;;4.72;1.98;;;;;;;19.02;64.42;101420.97;6125890;23;20025;-89
2022/07/16 01:13:04;;;;;;;4.30;1.90;;;;;;;18.92;65.15;101409.44;6120494;23;19998;-89
2022/07/16 01:15:29;;;;;;;2.67;1.90;;;;;;;19.12;64.49;101413.03;6125405;23;19998;-90
2022/07/16 01:17:55;;;;;;;4.80;2.10;;;;;;;19.10;64.31;101420.31;6126037;23;20048;-90
2022/07/16 01:20:20;;;;;;;9.82;1.95;;;;;;;19.19;63.38;101416.81;6126345;23;20002;-89
2022/07/16 01:22:46;;;;;;;2.63;2.00;;;;;;;19.04;63.90;101416.34;6125928;23;20094;-88
2022/07/16 01:25:12;;;;;;;3.17;2.17;;;;;;;18.92;63.79;101414.78;6126427;23;20056;-91
2022/07/16 01:27:38;;;;;;;5.72;2.03;;;;;;;18.87;64.59;101420.47;6124517;23;20144;-87
2022/07/16 01:30:08;;;;;;;2.75;1.40;;;;;;;19.02;63.17;101418.31;6123889;23;20560;-88
2022/07/16 01:32:35;;;;;;;2.45;1.90;;;;;;;19.06;63.13;101414.41;6125368;23;20006;-87
2022/07/16 01:35:01;;;;;;;1.58;1.27;;;;;;;18.99;63.39;101414.06;6125814;23;20151;-85
2022/07/16 01:37:26;;;;;;;2.30;1.60;;;;;;;19.05;63.08;101417.19;6125144;23;20013;-85
2022/07/16 01:39:52;;;;;;;1.83;1.25;;;;;;;19.02;63.23;101416.47;6125535;23;20006;-84
2022/07/16 01:42:17;;;;;;;1.88;1.30;;;;;;;18.97;63.25;101413.38;6125458;23;20005;-84
2022/07/16 01:44:42;;;;;;;3.35;1.85;;;;;;;18.99;62.52;101414.06;6125784;23;20006;-85
2022/07/16 01:47:08;;;;;;;3.30;1.63;;;;;;;19.02;62.25;101405.84;6126073;23;20025;-85
2022/07/16 01:49:35;;;;;;;2.15;1.50;;;;;;;19.03;62.81;101415.50;6125334;23;20002;-85
2022/07/16 01:52:08;;;;;;;2.55;1.77;;;;;;;19.11;62.36;101419.31;6125049;23;20002;-85
2022/07/16 01:54:35;;;;;;;4.00;1.90;;;;;;;18.93;63.11;101419.94;6126080;23;20009;-85
2022/07/16 01:57:00;;;;;;;2.08;1.60;;;;;;;18.93;63.45;101419.09;6125654;23;20057;-86
2022/07/16 01:59:26;;;;;;;2.15;1.50;;;;;;;18.97;62.74;101415.19;6125269;23;20010;-85
2022/07/16 02:01:51;;;;;;;2.78;1.55;;;;;;;18.88;63.04;101416.84;6125468;23;20009;-85
2022/07/16 02:04:16;;;;;;;3.38;1.85;;;;;;;18.91;62.81;101413.91;6125585;23;20013;-86
2022/07/16 02:06:42;;;;;;;2.30;1.63;;;;;;;18.89;62.57;101426.50;6125415;23;20006;-86
2022/07/16 02:09:07;;;;;;;2.08;1.50;;;;;;;18.89;63.33;101426.50;6124968;23;20080;-86
2022/07/16 02:11:32;;;;;;;1.92;1.45;;;;;;;18.77;62.98;101422.22;6125021;23;20084;-87
2022/07/16 02:13:58;;;;;;;2.33;1.58;;;;;;;18.59;63.45;101422.00;6125207;23;20028;-87
2022/07/16 02:16:23;;;;;;;1.92;1.58;;;;;;;18.58;64.08;101425.63;6125419;23;20073;-87
2022/07/16 02:18:48;;;;;;;2.92;1.63;;;;;;;18.61;64.60;101423.53;6125183;23;19998;-88
2022/07/16 02:21:14;;;;;;;3.35;1.60;;;;;;;18.50;65.02;101418.28;6125224;23;20006;-87
2022/07/16 02:23:39;;;;;;;2.60;1.90;;;;;;;18.42;64.63;101432.28;6124768;23;20006;-87
2022/07/16 02:26:05;;;;;;;2.30;1.60;;;;;;;18.38;65.34;101429.97;6125381;23;20059;-86
2022/07/16 02:28:30;;;;;;;2.55;1.80;;;;;;;18.30;65.36;101429.78;6125212;23;20088;-86
2022/07/16 02:30:55;;;;;;;4.22;1.70;;;;;;;18.26;66.11;101431.88;6124577;23;20016;-90
2022/07/16 02:33:23;;;;;;;1.88;1.38;;;;;;;18.20;66.47;101432.38;6125235;23;19998;-90
2022/07/16 02:35:48;;;;;;;3.17;1.42;;;;;;;18.27;65.74;101436.22;6125219;23;20484;-89
2022/07/16 02:38:14;;;;;;;1.77;1.30;;;;;;;18.23;65.84;101438.28;6125259;23;19998;-90
2022/07/16 02:40:41;;;;;;;1.60;1.42;;;;;;;18.22;67.49;101433.94;6124897;23;20004;-88
2022/07/16 02:43:08;;;;;;;5.18;1.45;;;;;;;18.15;67.97;101427.47;6124569;23;20429;-89
2022/07/16 02:45:37;;;;;;;2.00;1.50;;;;;;;18.09;68.01;101425.31;6124531;23;20002;-89
2022/07/16 02:48:03;;;;;;;4.35;1.55;;;;;;;17.82;68.07;101413.31;6124727;23;19997;-90
2022/07/16 02:50:29;;;;;;;3.38;1.48;;;;;;;17.90;69.34;101414.53;6124706;23;20005;-89
2022/07/16 02:52:55;;;;;;;1.98;1.50;;;;;;;17.87;68.86;101415.63;6124697;23;20009;-90
2022/07/16 02:55:20;;;;;;;2.40;1.40;;;;;;;17.69;69.62;101411.78;6123543;23;20002;-89
2022/07/16 02:57:47;;;;;;;2.83;1.92;;;;;;;17.71;69.62;101421.31;6124869;23;20025;-90
2022/07/16 03:00:14;;;;;;;2.90;1.95;;;;;;;17.81;69.17;101427.59;6124755;23;20009;-90
2022/07/16 03:02:40;;;;;;;2.42;1.40;;;;;;;17.88;69.15;101424.44;6121946;23;20341;-89
2022/07/16 03:05:07;;;;;;;3.25;1.65;;;;;;;17.76;69.42;101416.47;6123335;23;20005;-88
2022/07/16 03:07:32;;;;;;;4.35;2.10;;;;;;;17.80;69.60;101414.41;6124369;23;20017;-89
2022/07/16 03:09:58;;;;;;;2.75;1.88;;;;;;;17.80;69.10;101415.25;6124592;23;20010;-90
2022/07/16 03:12:23;;;;;;;1.95;1.40;;;;;;;17.84;69.64;101415.88;6124635;23;20002;-89
2022/07/16 03:14:49;;;;;;;4.53;2.00;;;;;;;17.73;70.22;101422.06;6125072;23;20006;-90
2022/07/16 03:17:14;;;;;;;2.30;1.73;;;;;;;17.87;70.14;101423.59;6124318;23;20409;-87
2022/07/16 03:19:40;;;;;;;3.83;1.60;;;;;;;17.90;70.13;101435.78;6124489;23;20033;-88
2022/07/16 03:22:06;;;;;;;5.03;1.48;;;;;;;17.89;70.92;101426.13;6124931;23;20479;-89
2022/07/16 03:24:32;;;;;;;3.92;2.03;;;;;;;17.84;70.45;101426.50;6124913;23;20006;-89
2022/07/16 03:26:57;;;;;;;1.92;1.55;;;;;;;17.82;70.19;101434.56;6124464;23;20448;-86
2022/07/16 03:29:23;;;;;;;1.85;1.65;;;;;;;17.88;69.76;101427.09;6124087;23;20017;-92
2022/07/16 03:31:48;;;;;;;3.83;2.35;;;;;;;17.95;69.89;101442.41;6123709;23;20006;-91
2022/07/16 03:34:14;;;;;;;2.97;1.77;;;;;;;17.92;69.77;101436.50;6124834;23;20006;-92
2022/07/16 03:36:39;;;;;;;3.00;1.75;;;;;;;17.84;70.78;101432.66;6123565;23;20037;-90
2022/07/16 03:39:05;;;;;;;1.67;1.52;;;;;;;17.78;71.97;101433.13;6147249;23;20090;-88
2022/07/16 03:41:35;;;;;;;2.78;1.48;;;;;;;17.61;71.99;101429.22;6124305;23;20440;-89
2022/07/16 03:44:06;;;;;;;2.45;1.65;;;;;;;17.62;73.48;101435.38;6124604;23;20094;-85
2022/07/16 03:46:32;;;;;;;;;;;;;;;17.54;73.78;101443.13;6124566;23;20006;-91
2022/07/16 03:48:58;;;;;;;1.33;1.17;;;;;;;17.52;73.91;101437.09;6122942;23;20126;-91
2022/07/16 03:51:24;;;;;;;2.05;1.48;;;;;;;17.43;73.17;101426.22;6123701;23;20013;-90
2022/07/16 03:53:50;;;;;;;2.20;1.45;;;;;;;17.37;75.13;101440.00;6124354;23;20429;-89
2022/07/16 03:56:15;;;;;;;2.83;1.65;;;;;;;17.33;75.61;101437.72;6124464;23;20077;-89
2022/07/16 03:58:41;;;;;;;2.47;1.38;;;;;;;17.35;75.42;101435.78;6122315;23;20056;-88
2022/07/16 04:01:07;;;;;;;2.17;1.58;;;;;;;17.22;76.00;101435.94;6120291;23;20438;-89
2022/07/16 04:03:34;;;;;;;1.85;1.45;;;;;;;17.15;76.53;101430.25;6124213;23;20002;-89
2022/07/16 04:05:59;;;;;;;2.13;1.50;;;;;;;17.06;76.28;101430.97;6124360;23;20082;-90
2022/07/16 04:08:25;;;;;;;2.90;1.80;;;;;;;17.11;77.00;101422.66;6123963;23;20034;-90
2022/07/16 04:10:51;;;;;;;4.18;2.05;;;;;;;17.15;76.49;101435.56;6123712;23;20013;-90
2022/07/16 04:13:16;;;;;;;4.18;1.92;;;;;;;16.87;77.72;101434.25;6124650;23;20410;-90
2022/07/16 04:15:42;;;;;;;2.20;1.58;;;;;;;16.93;77.29;101431.09;6123998;23;20032;-87
2022/07/16 04:18:07;;;;;;;3.45;1.65;;;;;;;16.80;78.95;101431.16;6124325;23;20002;-90
2022/07/16 04:20:33;;;;;;;2.70;1.77;;;;;;;17.01;77.34;101434.00;6123661;23;19998;-90
2022/07/16 04:22:58;;;;;;;2.00;1.80;;;;;;;16.97;76.84;101437.84;6123851;23;20012;-89
2022/07/16 04:25:24;;;;;;;3.35;1.90;;;;;;;16.90;77.77;101446.41;6124078;23;20005;-87
2022/07/16 04:27:49;;;;;;;3.33;1.75;;;;;;;16.98;77.76;101449.31;6124477;23;20006;-87
2022/07/16 04:30:15;;;;;;;4.10;1.65;;;;;;;16.97;78.25;101437.03;6123722;23;20429;-87
2022/07/16 04:32:41;;;;;;;3.30;1.92;;;;;;;16.89;79.27;101439.44;6124104;23;20477;-88
2022/07/16 04:35:09;;;;;;;2.83;1.90;;;;;;;16.97;79.10;101450.28;6123798;23;20013;-87
2022/07/16 04:37:35;;;;;;;2.38;1.83;;;;;;;17.00;78.68;101457.97;6124289;23;20473;-89
2022/07/16 04:40:02;;;;;;;2.80;2.10;;;;;;;17.00;79.42;101456.19;6124439;23;20080;-88
2022/07/16 04:42:27;;;;;;;2.47;1.60;;;;;;;16.92;79.68;101450.63;6124239;23;20100;-89
2022/07/16 04:44:53;;;;;;;2.60;1.95;;;;;;;17.08;78.81;101452.06;6124360;23;20449;-89
2022/07/16 04:47:18;;;;;;;2.17;1.83;;;;;;;16.97;79.88;101447.63;6121807;23;20016;-90
2022/07/16 04:49:43;;;;;;;2.03;1.63;;;;;;;17.07;79.81;101456.56;6123677;23;20030;-89
2022/07/16 04:52:09;;;;;;;3.83;1.83;;;;;;;17.02;79.77;101456.94;6123799;23;20724;-89
2022/07/16 04:54:34;;;;;;;2.33;1.88;;;;;;;17.09;78.28;101473.19;6124038;23;20429;-90
2022/07/16 04:56:59;;;;;;;3.40;2.05;;;;;;;17.12;78.92;101472.97;6123678;23;20034;-88
2022/07/16 04:59:25;;;;;;;2.13;1.70;;;;;;;17.04;79.32;101470.91;6124253;23;20049;-89
2022/07/16 05:01:51;;;;;;;2.47;1.60;;;;;;;17.13;79.58;101463.19;6124779;23;20495;-89
2022/07/16 05:04:16;;;;;;;3.35;1.85;;;;;;;17.09;79.58;101462.59;6124486;23;20044;-92
2022/07/16 05:06:41;;;;;;;3.22;1.90;;;;;;;17.19;78.82;101468.84;6122982;23;20445;-90
2022/07/16 05:09:07;;;;;;;2.58;1.67;;;;;;;17.26;79.10;101474.53;6124069;23;20418;-90
2022/07/16 05:11:32;;;;;;;3.55;2.13;;;;;;;17.25;79.62;101478.97;6121369;23;20136;-90
2022/07/16 05:13:58;;;;;;;4.78;1.83;;;;;;;17.37;78.34;101482.47;6124041;23;20010;-90
2022/07/16 05:16:24;;;;;;;3.47;1.75;;;;;;;17.31;80.08;101474.16;6122381;23;19998;-92
2022/07/16 05:18:50;;;;;;;3.10;1.92;;;;;;;17.47;78.64;101465.81;6118724;23;20006;-90
2022/07/16 05:21:16;;;;;;;2.95;2.00;;;;;;;17.58;77.99;101484.38;6118940;23;20068;-93
2022/07/16 05:23:41;;;;;;;2.67;2.10;;;;;;;17.59;78.26;101470.97;6120079;23;20010;-92
2022/07/16 05:26:07;;;;;;;2.40;2.08;;;;;;;17.69;77.19;101476.38;6118542;23;20024;-92
2022/07/16 05:28:32;;;;;;;4.18;1.80;;;;;;;17.71;75.53;101486.88;6119534;23;19998;-92
2022/07/16 05:30:57;;;;;;;2.15;1.55;;;;;;;17.87;75.14;101484.72;6120080;23;20013;-90
2022/07/16 05:33:23;;;;;;;2.40;2.20;;;;;;;17.83;74.64;101484.13;6118265;23;20009;-91
2022/07/16 05:35:48;;;;;;;2.63;1.70;;;;;;;17.68;77.36;101485.31;6120519;23;20010;-91
2022/07/16 05:38:14;;;;;;;4.30;2.17;;;;;;;17.90;78.05;101483.63;6119842;23;20010;-91
2022/07/16 05:40:39;;;;;;;3.33;1.83;;;;;;;17.99;76.82;101493.47;6120388;23;20048;-91
2022/07/16 05:43:06;;;;;;;2.17;1.50;;;;;;;18.17;77.64;101481.34;6119093;23;20081;-92
2022/07/16 05:45:32;;;;;;;2.22;1.75;;;;;;;18.31;76.52;101472.22;6118655;23;20064;-93
2022/07/16 05:47:57;;;;;;;2.40;1.95;;;;;;;18.51;75.44;101483.81;6120376;23;20009;-91
2022/07/16 05:50:23;;;;;;;2.47;1.80;;;;;;;18.59;75.69;101480.50;6119773;23;20013;-91
2022/07/16 05:52:48;;;;;;;3.10;1.80;;;;;;;18.60;73.76;101477.72;6118712;23;20010;-91
2022/07/16 05:55:13;;;;;;;3.40;1.95;;;;;;;18.71;74.65;101486.59;6120215;23;20013;-90
2022/07/16 05:57:39;;;;;;;1.90;1.70;;;;;;;18.76;74.03;101476.41;6119838;23;20081;-93
2022/07/16 06:00:08;;;;;;;2.90;1.65;;;;;;;18.98;72.45;101483.44;6120544;23;20045;-94
2022/07/16 06:02:34;;;;;;;3.58;2.10;;;;;;;18.94;72.55;101485.50;6118807;23;20006;-92
2022/07/16 06:04:59;;;;;;;2.83;2.28;;;;;;;19.09;72.47;101493.13;6120724;23;20085;-91
2022/07/16 06:07:25;;;;;;;2.08;1.70;;;;;;;19.18;72.23;101493.19;6120174;23;20016;-90
2022/07/16 06:09:50;;;;;;;3.30;2.10;;;;;;;19.28;71.65;101493.22;6119208;23;20006;-91
2022/07/16 06:12:15;;;;;;;4.70;3.00;;;;;;;19.39;71.06;101498.44;6123043;23;20064;-91
2022/07/16 06:14:41;;;;;;;3.08;1.95;;;;;;;19.57;70.79;101503.13;6126220;23;20002;-91
2022/07/16 06:17:06;;;;;;;2.05;1.60;;;;;;;19.78;68.00;101503.06;6125304;23;20029;-92
2022/07/16 06:19:32;;;;;;;3.05;2.03;;;;;;;20.14;66.49;101501.56;6125626;23;20333;-93
2022/07/16 06:21:57;;;;;;;2.40;1.92;;;;;;;20.52;64.49;101502.53;6124754;23;20383;-91
2022/07/16 06:24:22;;;;;;;3.28;1.88;;;;;;;20.90;61.86;101497.28;6125023;23;20081;-93
2022/07/16 06:26:48;;;;;;;4.43;2.63;;;;;;;21.05;61.82;101493.16;6124682;23;20426;-91
2022/07/16 06:29:15;;;;;;;3.75;2.40;;;;;;;21.44;59.80;101501.00;6125434;23;20088;-90
2022/07/16 06:31:41;;;;;;;5.75;2.35;;;;;;;22.33;57.58;101502.97;6122836;23;20356;-91
2022/07/16 06:34:06;;;;;;;5.15;2.78;;;;;;;22.74;55.00;101495.19;6124534;23;20337;-91
2022/07/16 06:36:31;;;;;;;2.45;1.70;;;;;;;24.81;48.70;101505.47;6125979;23;20001;-90
2022/07/16 06:38:57;;;;;;;4.70;2.55;;;;;;;24.93;47.16;101509.47;6124974;23;20285;-90
2022/07/16 06:41:22;;;;;;;3.20;2.10;;;;;;;26.34;44.74;101500.50;6124173;23;20002;-93
2022/07/16 06:43:48;;;;;;;3.67;2.08;;;;;;;27.40;41.44;101497.75;6123968;23;20002;-94
2022/07/16 06:46:13;;;;;;;2.65;1.80;;;;;;;29.18;37.72;101510.34;6124014;23;20429;-92
2022/07/16 06:48:39;;;;;;;3.63;1.85;;;;;;;30.65;35.41;101502.53;6126222;23;20082;-91
2022/07/16 06:51:04;;;;;;;3.13;1.92;;;;;;;31.91;32.81;101506.66;6125560;23;20488;-91
2022/07/16 06:53:30;;;;;;;4.78;2.13;;;;;;;33.58;30.67;101505.00;6125556;23;20481;-92
2022/07/16 06:55:55;;;;;;;6.38;2.13;;;;;;;34.40;29.67;101506.28;6124291;23;20002;-91
2022/07/16 06:58:21;;;;;;;4.32;2.35;;;;;;;35.12;27.61;101515.00;6125123;23;20005;-92
2022/07/16 07:00:46;;;;;;;4.15;1.98;;;;;;;35.26;28.21;101509.31;6125185;23;20038;-91
2022/07/16 07:03:11;;;;;;;4.47;2.67;;;;;;;36.08;26.56;101508.06;6125230;23;20008;-92
2022/07/16 07:05:38;;;;;;;3.92;1.50;;;;;;;36.95;26.18;101509.41;6125150;23;20367;-90
2022/07/16 07:08:04;;;;;;;4.80;1.70;;;;;;;37.21;25.60;101515.22;6123537;23;20326;-89
2022/07/16 07:10:30;;;;;;;2.70;1.70;;;;;;;36.90;25.59;101512.06;6125076;23;20013;-92
2022/07/16 07:12:55;;;;;;;;;;;;;;;38.58;24.19;101514.84;6124199;23;20001;-93
2022/07/16 07:15:20;;;;;;;;;;;;;;;40.25;22.02;101508.41;6127503;23;19919;-91
2022/07/16 07:17:46;;;;;;;;;;;;;;;38.34;23.64;101513.56;6123606;23;19916;-90
2022/07/16 07:20:12;;;;;;;3.90;2.10;;;;;;;39.34;22.83;101513.53;6125658;23;19988;-91
2022/07/16 07:22:37;;;;;;;;;;;;;;;40.17;22.16;101518.06;6125193;23;20664;-90
2022/07/16 07:25:03;;;;;;;2.97;1.40;;;;;;;41.13;21.46;101517.25;6124321;23;19947;-91
2022/07/16 07:27:29;;;;;;;3.55;2.00;;;;;;;41.07;21.80;101505.44;6124263;23;20006;-91
2022/07/16 07:29:54;;;;;;;3.42;1.98;;;;;;;41.37;22.11;101517.41;6124004;23;20012;-90
2022/07/16 07:32:19;;;;;;;2.72;1.63;;;;;;;41.29;21.46;101509.75;6123297;23;20006;-89
2022/07/16 07:34:45;;;;;;;2.05;1.60;;;;;;;42.33;20.28;101489.34;6124723;23;20073;-91
2022/07/16 07:37:10;;;;;;;4.03;2.08;;;;;;;41.57;20.55;101499.91;6124618;23;20036;-92
2022/07/16 07:39:37;;;;;;;2.13;1.33;;;;;;;41.66;20.83;101489.94;6124385;23;20024;-91
2022/07/16 07:42:03;;;;;;;3.95;2.20;;;;;;;43.37;18.65;101491.38;6122150;23;20006;-94
2022/07/16 07:44:29;;;;;;;3.35;1.88;;;;;;;42.44;19.60;101479.00;6123436;23;20045;-93
2022/07/16 07:46:54;;;;;;;2.78;1.27;;;;;;;42.68;19.08;101476.25;6124258;23;20033;-93
2022/07/16 07:49:20;;;;;;;3.03;1.35;;;;;;;43.55;18.73;101499.97;6124974;23;20009;-92
2022/07/16 07:51:45;;;;;;;3.90;1.60;;;;;;;43.63;18.60;101504.81;6123191;23;20014;-93
2022/07/16 07:54:10;;;;;;;3.35;1.65;;;;;;;44.46;17.83;101496.72;6147624;23;20006;-92
2022/07/16 07:56:36;;;;;;;5.70;1.30;;;;;;;42.34;18.90;101482.72;6123660;23;20057;-92
2022/07/16 07:59:01;;;;;;;2.65;1.30;;;;;;;42.32;18.91;101465.63;6124314;23;20425;-92
2022/07/16 08:01:27;;;;;;;1.80;1.00;;;;;;;42.30;19.03;101452.13;6123964;23;20038;-92
2022/07/16 08:03:52;;;;;;;2.60;1.33;;;;;;;43.33;18.67;101443.34;6124961;23;20017;-92
2022/07/16 08:06:17;;;;;;;1.52;0.80;;;;;;;43.12;18.95;101473.22;6124334;23;20002;-92
2022/07/16 08:08:43;;;;;;;2.35;1.15;;;;;;;42.87;18.73;101493.72;6124810;23;20037;-96
2022/07/16 08:11:08;;;;;;;1.98;1.00;;;;;;;42.73;18.21;101503.81;6147076;23;20010;-93
2022/07/16 08:13:34;;;;;;;2.10;1.00;;;;;;;42.89;17.85;101491.47;6123688;23;20587;-93
2022/07/16 08:15:59;;;;;;;3.47;1.00;;;;;;;41.97;19.34;101467.63;6124461;23;19998;-92
2022/07/16 08:18:25;;;;;;;2.75;1.00;;;;;;;42.69;18.32;101484.25;6124421;23;20006;-91
2022/07/16 08:20:50;;;;;;;1.42;0.60;;;;;;;42.53;18.92;101444.16;6124378;23;20013;-91
2022/07/16 08:25:44;;;;;;;2.00;0.50;;;;;;;43.35;19.25;101488.09;6124373;23;19998;-92
2022/07/16 08:26:01;;;;;;;4.15;1.15;;;;;;;43.02;18.51;101458.72;6123799;23;20006;-93
2022/07/16 08:28:26;;;;;;;3.80;1.33;;;;;;;43.43;18.76;101478.31;6125122;23;20368;-92
2022/07/16 08:30:52;;;;;;;1.92;0.98;;;;;;;43.62;18.83;101491.28;6123799;23;20017;-91
2022/07/16 08:33:17;;;;;;;2.40;1.73;;;;;;;39.52;21.75;101457.28;6124517;23;20002;-93
2022/07/16 08:35:44;;;;;;;1.92;0.93;;;;;;;41.78;20.24;101460.06;6124403;23;20010;-92
2022/07/16 08:38:09;;;;;;;1.73;1.13;;;;;;;43.36;19.30;101481.44;6124226;23;20014;-92
2022/07/16 08:40:40;;;;;;;4.15;1.15;;;;;;;43.43;17.91;101489.38;6125023;23;20006;-93
2022/07/16 08:43:07;;;;;;;1.45;0.73;;;;;;;42.39;19.17;101494.50;6124920;23;20002;-91
2022/07/16 08:45:36;;;;;;;2.85;1.40;;;;;;;40.09;20.46;101488.34;6124224;23;19999;-93
2022/07/16 08:48:02;;;;;;;4.28;1.88;;;;;;;41.97;19.46;101490.50;6123371;23;20009;-94
2022/07/16 08:50:28;;;;;;;4.10;1.10;;;;;;;42.75;19.25;101496.88;6122640;23;20010;-92
2022/07/16 08:52:56;;;;;;;3.13;1.17;;;;;;;41.71;19.57;101494.59;6131575;23;20089;-96
2022/07/16 08:55:23;;;;;;;2.40;1.35;;;;;;;41.88;19.87;101491.41;6123736;23;20508;-94
2022/07/16 08:57:49;;;;;;;4.18;1.15;;;;;;;43.03;18.40;101499.03;6125135;23;20049;-92
2022/07/16 09:00:15;;;;;;;3.13;1.17;;;;;;;42.86;18.87;101503.13;6123793;23;20012;-93
2022/07/16 09:02:41;;;;;;;8.43;1.70;;;;;;;39.84;21.52;101492.72;6124386;23;20241;-92
2022/07/16 09:05:07;;;;;;;1.63;1.00;;;;;;;42.81;19.09;101494.06;6125862;23;20010;-92
2022/07/16 09:07:33;;;;;;;2.25;1.00;;;;;;;43.23;19.08;101492.41;6126124;23;20010;-91
2022/07/16 09:09:59;;;;;;;2.65;1.15;;;;;;;43.53;17.71;101493.91;6124997;23;20080;-91
2022/07/16 09:12:39;;;;;;;4.18;1.58;;;;;;;42.63;19.27;101484.63;6125960;23;20499;-91
2022/07/16 09:15:37;;;;;;;2.30;1.45;;;;;;;43.97;17.73;101484.34;6125167;23;20025;-91
2022/07/16 09:18:22;;;;;;;3.08;1.40;;;;;;;42.93;19.23;101478.72;6124127;23;20361;-90
2022/07/16 09:20:57;;;;;;;3.38;1.55;;;;;;;43.04;19.45;101473.06;6126238;23;20421;-90
2022/07/16 09:23:34;;;;;;;2.50;1.20;;;;;;;43.81;18.30;101474.69;6126339;23;20002;-90
2022/07/16 09:26:05;;;;;;;2.63;1.45;;;;;;;42.49;18.76;101467.94;6124989;23;20052;-91
2022/07/16 09:28:43;;;;;;;2.95;1.45;;;;;;;43.07;18.56;101472.47;6125656;23;20002;-89
2022/07/16 09:31:09;;;;;;;1.90;1.20;;;;;;;42.38;19.77;101472.72;6125921;23;20010;-89
2022/07/16 09:33:34;;;;;;;2.65;1.10;;;;;;;43.98;18.89;101480.44;6125774;23;20097;-89
2022/07/16 09:36:11;;;;;;;2.35;1.20;;;;;;;43.56;18.28;101477.53;6126169;23;20049;-89
2022/07/16 09:38:51;;;;;;;3.35;1.40;;;;;;;42.29;19.84;101480.03;6124247;23;20041;-90
2022/07/16 09:41:18;;;;;;;3.15;1.48;;;;;;;41.75;20.37;101477.19;6124140;23;20018;-90
2022/07/16 09:43:44;;;;;;;3.00;1.48;;;;;;;42.42;19.60;101482.09;6125666;23;20033;-90
2022/07/16 09:46:16;;;;;;;2.58;1.23;;;;;;;43.20;19.37;101474.47;6126102;23;20013;-90
2022/07/16 09:48:42;;;;;;;2.72;1.20;;;;;;;43.63;19.42;101479.09;6124005;23;20052;-90
2022/07/16 09:51:18;;;;;;;3.05;1.75;;;;;;;43.18;19.59;101482.25;6148799;23;20072;-90
2022/07/16 09:53:46;;;;;;;1.30;1.20;;;;;;;43.12;18.34;101473.22;6125530;23;20073;-90
2022/07/16 09:56:24;;;;;;;3.78;1.70;;;;;;;42.05;20.11;101477.25;6124381;23;20025;-90
2022/07/16 09:58:51;;;;;;;2.15;1.50;;;;;;;42.34;20.25;101474.44;6125483;23;20013;-90
2022/07/16 10:01:18;;;;;;;2.88;1.42;;;;;;;42.75;20.34;101477.53;6125773;23;20020;-90
2022/07/16 10:03:46;;;;;;;1.88;1.30;;;;;;;41.58;20.69;101487.78;6125649;23;20002;-90
2022/07/16 10:06:12;;;;;;;2.45;1.38;;;;;;;41.93;20.22;101485.88;6124819;23;20002;-90
2022/07/16 10:08:40;;;;;;;4.07;1.83;;;;;;;41.18;20.12;101489.72;6124039;23;20476;-90
2022/07/16 10:11:06;;;;;;;2.30;1.77;;;;;;;42.34;19.93;101490.97;6123515;23;20014;-90
2022/07/16 10:13:33;;;;;;;3.20;1.70;;;;;;;42.42;19.10;101487.59;6124337;23;20013;-90
2022/07/16 10:15:58;;;;;;;3.47;1.50;;;;;;;42.68;20.25;101493.66;6124213;23;20064;-90
2022/07/16 10:18:39;;;;;;;3.55;1.42;;;;;;;41.98;19.89;101491.31;6124267;23;20081;-90
2022/07/16 10:21:09;;;;;;;3.15;1.85;;;;;;;40.94;21.27;101503.28;6123725;23;20002;-91
2022/07/16 10:23:35;;;;;;;4.27;1.87;;;;;;;40.91;20.76;101493.66;6123836;23;20413;-91
2022/07/16 10:26:05;;;;;;;2.72;1.70;;;;;;;42.33;20.42;101486.59;6123404;23;20436;-90
2022/07/16 10:28:38;;;;;;;3.25;1.75;;;;;;;42.56;19.74;101487.75;6124149;23;20006;-90
2022/07/16 10:32:26;;;;;;;3.42;1.60;;;;;;;42.33;19.90;101481.06;6124812;23;20006;-90
2022/07/16 10:34:39;;;;;;;3.53;1.55;;;;;;;43.05;19.93;101478.28;6123802;23;20137;-90
2022/07/16 10:37:10;;;;;;;6.78;2.22;;;;;;;40.54;21.20;101488.56;6124356;23;20385;-89
2022/07/16 10:40:13;;;;;;;4.43;1.63;;;;;;;39.76;21.99;101487.78;6123279;23;20001;-90
2022/07/16 10:42:39;;;;;;;3.80;2.17;;;;;;;39.22;22.26;101494.56;6123125;23;20010;-90
2022/07/16 10:45:05;;;;;;;3.83;2.00;;;;;;;37.99;23.70;101492.97;6124091;23;20432;-90
2022/07/16 10:47:47;;;;;;;3.47;2.05;;;;;;;38.32;23.13;101493.81;6124085;23;20005;-90
2022/07/16 10:50:21;;;;;;;5.13;1.80;;;;;;;40.90;21.77;101486.53;6124418;23;20006;-90
2022/07/16 10:52:49;;;;;;;3.20;2.00;;;;;;;40.37;21.97;101484.19;6123645;23;20085;-90
2022/07/16 10:55:38;;;;;;;2.58;2.13;;;;;;;40.32;21.11;101486.97;6123278;23;20414;-91
2022/07/16 10:58:04;;;;;;;3.47;1.85;;;;;;;41.02;20.68;101488.94;6123733;23;20029;-90
2022/07/16 11:00:29;;;;;;;2.00;1.80;;;;;;;40.85;20.74;101488.47;6123815;23;20017;-91
2022/07/16 11:03:00;;;;;;;3.00;2.25;;;;;;;41.10;20.54;101490.25;6123581;23;20089;-89
2022/07/16 11:05:26;;;;;;;;;;;;;;;40.65;21.29;101490.16;6124367;23;20133;-90
2022/07/16 11:07:52;;;;;;;2.60;1.90;;;;;;;40.89;20.61;101484.06;6077314;23;1129273;-90
2022/07/16 11:10:21;;;;;;;7.40;1.90;;;;;;;41.16;20.96;101489.16;6124349;23;20014;-89
2022/07/16 11:12:47;;;;;;;4.68;1.70;;;;;;;41.62;21.50;101491.63;6122876;23;20048;-89
2022/07/16 11:15:12;;;;;;;5.40;2.05;;;;;;;41.24;21.11;101496.84;6125030;23;20029;-89
2022/07/16 11:17:37;;;;;;;3.88;1.80;;;;;;;40.85;21.03;101486.53;6125511;23;20085;-89
2022/07/16 11:20:05;;;;;;;3.28;2.10;;;;;;;41.12;20.99;101485.31;6124904;23;20002;-89
2022/07/16 11:22:31;;;;;;;3.40;1.90;;;;;;;40.61;22.17;101478.06;6125218;23;20337;-89
2022/07/16 11:25:03;;;;;;;6.55;1.85;;;;;;;40.98;22.10;101483.19;6124198;23;20006;-89
2022/07/16 11:27:33;;;;;;;3.10;1.73;;;;;;;40.73;22.47;101484.06;6124511;23;20005;-89